Time;durP1;ratioP1;P1;durP2;ratioP2;P2;SDS_P1;SDS_P2;PMS_P1;PMS_P2;Temp;Humidity;BMP_temperature;BMP_pressure;BME280_temperature;BME280_humidity;BME280_pressure;Samples;Min_cycle;Max_cycle;Signal;HPM_P1;HPM_P2
2023/10/27 00:01:58;;;;;;;8.02;3.67;;;;;;;;;;5122389;27;20412;-63
2023/10/27 00:04:24;;;;;;;4.88;3.42;;;;;;;;;;5124314;27;20031;-63
2023/10/27 00:06:50;;;;;;;8.05;3.90;;;;;;;;;;5120732;27;20031;-63
2023/10/27 00:09:19;;;;;;;3.85;3.10;;;;;;;;;;5121598;27;20080;-63
2023/10/27 00:11:46;;;;;;;6.30;3.25;;;;;;;;;;5120456;27;20023;-63
2023/10/27 00:14:13;;;;;;;8.02;3.63;;;;;;;;;;5118813;27;20030;-63
2023/10/27 00:16:40;;;;;;;6.68;3.00;;;;;;;;;;5114076;27;20387;-62
2023/10/27 00:19:06;;;;;;;5.28;2.65;;;;;;;;;;5111702;27;20102;-63
2023/10/27 00:21:32;;;;;;;7.15;3.80;;;;;;;;;;5120141;27;20023;-63
2023/10/27 00:23:58;;;;;;;5.15;3.53;;;;;;;;;;5120747;27;20471;-63
2023/10/27 00:26:24;;;;;;;7.03;4.13;;;;;;;;;;5120365;27;20038;-63
2023/10/27 00:28:51;;;;;;;7.57;3.30;;;;;;;;;;5118343;27;20035;-63
2023/10/27 00:31:18;;;;;;;6.22;3.30;;;;;;;;;;5122231;27;20099;-63
2023/10/27 00:33:44;;;;;;;5.68;2.83;;;;;;;;;;5111566;27;20440;-63
2023/10/27 00:36:10;;;;;;;4.82;2.88;;;;;;;;;;5120761;27;20376;-63
2023/10/27 00:38:37;;;;;;;4.60;3.13;;;;;;;;;;5119632;27;20023;-63
2023/10/27 00:41:03;;;;;;;6.43;3.10;;;;;;;;;;5116979;27;20035;-63
2023/10/27 00:43:29;;;;;;;5.53;3.45;;;;;;;;;;5116632;27;20031;-63
2023/10/27 00:45:56;;;;;;;6.22;3.38;;;;;;;;;;5114760;27;20484;-64
2023/10/27 00:48:22;;;;;;;3.83;3.10;;;;;;;;;;5120851;27;20054;-63
2023/10/27 00:50:48;;;;;;;3.05;2.70;;;;;;;;;;5117355;27;20031;-67
2023/10/27 00:53:14;;;;;;;7.47;3.20;;;;;;;;;;5125628;27;20118;-63
2023/10/27 00:55:42;;;;;;;5.10;3.25;;;;;;;;;;5119528;27;20458;-63
2023/10/27 00:58:09;;;;;;;2.55;2.13;;;;;;;;;;5119750;27;20055;-63
2023/10/27 01:00:36;;;;;;;4.70;2.70;;;;;;;;;;5119609;27;20061;-63
2023/10/27 01:03:04;;;;;;;4.20;2.70;;;;;;;;;;5119003;27;20099;-63
2023/10/27 01:05:30;;;;;;;4.78;2.85;;;;;;;;;;5122406;27;20019;-63
2023/10/27 01:07:56;;;;;;;7.55;2.80;;;;;;;;;;5116391;27;20087;-63
2023/10/27 01:10:23;;;;;;;5.70;2.95;;;;;;;;;;5121079;27;20023;-63
2023/10/27 01:12:50;;;;;;;6.32;2.58;;;;;;;;;;5112039;27;20027;-63
2023/10/27 01:15:17;;;;;;;5.25;2.70;;;;;;;;;;5114793;27;20027;-62
2023/10/27 01:17:43;;;;;;;4.90;2.67;;;;;;;;;;5111922;27;20030;-63
2023/10/27 01:20:10;;;;;;;3.67;2.63;;;;;;;;;;5111303;27;20062;-62
2023/10/27 01:22:49;;;;;;;3.03;2.30;;;;;;;;;;5122116;27;20075;-63
2023/10/27 01:25:15;;;;;;;4.60;2.72;;;;;;;;;;5117845;27;20035;-62
2023/10/27 01:27:41;;;;;;;3.53;2.72;;;;;;;;;;5118580;27;20028;-63
2023/10/27 01:30:08;;;;;;;10.57;2.97;;;;;;;;;;5120371;28;20063;-64
2023/10/27 01:32:35;;;;;;;5.45;3.35;;;;;;;;;;5112466;28;20417;-63
2023/10/27 01:35:01;;;;;;;6.00;2.90;;;;;;;;;;5121137;28;20383;-62
2023/10/27 01:37:27;;;;;;;4.88;2.63;;;;;;;;;;5120368;28;20465;-62
2023/10/27 01:39:56;;;;;;;6.65;2.83;;;;;;;;;;5110998;28;20328;-63
2023/10/27 01:42:22;;;;;;;4.05;2.65;;;;;;;;;;5116037;28;20039;-63
2023/10/27 01:44:48;;;;;;;5.95;2.63;;;;;;;;;;5116827;28;20132;-63
2023/10/27 01:47:15;;;;;;;3.45;2.50;;;;;;;;;;5116239;28;20032;-62
2023/10/27 01:49:41;;;;;;;4.78;2.63;;;;;;;;;;5117667;28;20387;-64
2023/10/27 01:52:08;;;;;;;3.50;3.00;;;;;;;;;;5114394;28;20015;-63
2023/10/27 01:54:34;;;;;;;3.58;2.70;;;;;;;;;;5113037;28;20512;-63
2023/10/27 01:57:00;;;;;;;2.83;2.38;;;;;;;;;;5113213;28;20035;-63
2023/10/27 01:59:28;;;;;;;6.00;2.70;;;;;;;;;;5113538;28;20624;-63
2023/10/27 02:01:55;;;;;;;8.45;4.30;;;;;;;;;;5113416;28;20240;-63
2023/10/27 02:04:22;;;;;;;6.07;4.00;;;;;;;;;;5117197;28;20635;-63
2023/10/27 02:06:48;;;;;;;6.97;3.40;;;;;;;;;;5114470;28;20106;-63
2023/10/27 02:09:14;;;;;;;5.85;3.35;;;;;;;;;;5118735;28;20063;-63
2023/10/27 02:11:41;;;;;;;6.53;3.75;;;;;;;;;;5112782;28;20055;-63
2023/10/27 02:14:07;;;;;;;4.30;3.03;;;;;;;;;;5120715;28;20035;-62
2023/10/27 02:16:33;;;;;;;6.82;3.80;;;;;;;;;;5118440;28;20102;-65
2023/10/27 02:18:59;;;;;;;5.72;3.13;;;;;;;;;;5122624;27;20547;-63
2023/10/27 02:21:25;;;;;;;6.80;3.08;;;;;;;;;;5120384;27;20027;-63
2023/10/27 02:23:51;;;;;;;3.72;3.10;;;;;;;;;;5124104;27;20042;-63
2023/10/27 02:26:19;;;;;;;4.40;3.17;;;;;;;;;;5118358;27;20034;-63
2023/10/27 02:28:45;;;;;;;6.22;3.28;;;;;;;;;;5120408;27;20039;-63
2023/10/27 02:31:11;;;;;;;3.45;2.42;;;;;;;;;;5123047;27;20475;-63
2023/10/27 02:33:37;;;;;;;5.63;3.88;;;;;;;;;;5123713;27;20073;-63
2023/10/27 02:36:03;;;;;;;6.68;3.20;;;;;;;;;;5115903;27;20412;-62
2023/10/27 02:38:30;;;;;;;5.63;3.33;;;;;;;;;;5120690;27;20377;-62
2023/10/27 02:40:56;;;;;;;3.97;2.72;;;;;;;;;;5123173;27;20051;-62
2023/10/27 02:43:22;;;;;;;7.95;3.20;;;;;;;;;;5121231;27;20028;-62
2023/10/27 02:45:49;;;;;;;3.63;2.60;;;;;;;;;;5116753;27;20207;-63
2023/10/27 02:48:16;;;;;;;6.20;3.08;;;;;;;;;;5116245;27;20027;-63
2023/10/27 02:50:42;;;;;;;5.32;3.17;;;;;;;;;;5122993;27;20047;-62
2023/10/27 02:53:09;;;;;;;2.95;2.63;;;;;;;;;;5126599;27;20070;-62
2023/10/27 02:55:36;;;;;;;4.35;2.60;;;;;;;;;;5126821;27;20104;-62
2023/10/27 02:58:02;;;;;;;5.03;2.75;;;;;;;;;;5122182;27;20487;-63
2023/10/27 03:00:28;;;;;;;7.25;3.35;;;;;;;;;;5122221;27;20027;-63
2023/10/27 03:02:54;;;;;;;4.20;2.85;;;;;;;;;;5125149;27;20102;-63
2023/10/27 03:05:21;;;;;;;6.00;3.15;;;;;;;;;;5122338;27;20028;-63
2023/10/27 03:07:47;;;;;;;4.55;3.22;;;;;;;;;;5120072;27;20031;-62
2023/10/27 03:10:13;;;;;;;4.47;3.28;;;;;;;;;;5124056;27;20073;-63
2023/10/27 03:12:39;;;;;;;3.60;2.88;;;;;;;;;;5125958;27;20034;-63
2023/10/27 03:15:06;;;;;;;4.40;2.58;;;;;;;;;;5116866;27;20054;-62
2023/10/27 03:17:34;;;;;;;5.85;2.63;;;;;;;;;;5117238;27;20030;-66
2023/10/27 03:20:01;;;;;;;4.55;2.58;;;;;;;;;;5123228;27;20019;-63
2023/10/27 03:22:27;;;;;;;8.68;3.10;;;;;;;;;;5120613;27;20023;-63
2023/10/27 03:24:54;;;;;;;3.20;2.90;;;;;;;;;;5116904;27;20023;-64
2023/10/27 03:27:20;;;;;;;11.07;3.38;;;;;;;;;;5124916;27;20132;-65
2023/10/27 03:29:46;;;;;;;4.18;2.63;;;;;;;;;;5117606;27;20038;-63
2023/10/27 03:32:12;;;;;;;6.50;3.55;;;;;;;;;;5117157;27;20015;-63
2023/10/27 03:34:38;;;;;;;5.65;3.30;;;;;;;;;;5119933;27;20673;-63
2023/10/27 03:37:04;;;;;;;3.55;2.95;;;;;;;;;;5124277;27;20197;-63
2023/10/27 03:39:30;;;;;;;4.53;2.65;;;;;;;;;;5120041;27;20128;-63
2023/10/27 03:41:57;;;;;;;6.78;2.78;;;;;;;;;;5114567;27;20050;-62
2023/10/27 03:44:23;;;;;;;5.57;2.85;;;;;;;;;;5114608;27;20028;-63
2023/10/27 03:46:49;;;;;;;7.85;4.30;;;;;;;;;;5117655;27;20131;-63
2023/10/27 03:49:15;;;;;;;4.15;3.25;;;;;;;;;;5099898;28;20066;-62
2023/10/27 03:51:41;;;;;;;4.85;3.20;;;;;;;;;;5108187;27;20035;-64
2023/10/27 03:54:08;;;;;;;4.90;2.65;;;;;;;;;;5113967;27;20023;-62
2023/10/27 03:56:34;;;;;;;5.20;2.90;;;;;;;;;;5118125;27;20019;-62
2023/10/27 03:59:00;;;;;;;5.20;2.80;;;;;;;;;;5122381;27;20031;-69
2023/10/27 04:01:27;;;;;;;3.65;3.08;;;;;;;;;;5117532;27;20027;-63
2023/10/27 04:03:54;;;;;;;6.22;3.08;;;;;;;;;;5120342;27;20080;-63
2023/10/27 04:06:21;;;;;;;3.83;3.05;;;;;;;;;;5108027;27;20092;-65
2023/10/27 04:08:47;;;;;;;6.97;2.67;;;;;;;;;;5121407;27;20106;-66
2023/10/27 04:11:13;;;;;;;5.63;3.03;;;;;;;;;;5114811;27;20530;-64
2023/10/27 04:13:39;;;;;;;4.18;3.33;;;;;;;;;;5115319;27;20054;-62
2023/10/27 04:16:06;;;;;;;3.28;2.45;;;;;;;;;;5120506;27;20027;-62
2023/10/27 04:18:32;;;;;;;3.20;2.30;;;;;;;;;;5121883;27;20027;-62
2023/10/27 04:20:58;;;;;;;3.45;2.60;;;;;;;;;;5116603;27;20114;-63
2023/10/27 04:23:24;;;;;;;3.85;2.67;;;;;;;;;;5117622;27;20019;-63
2023/10/27 04:25:51;;;;;;;3.35;2.50;;;;;;;;;;5122831;27;20142;-63
2023/10/27 04:28:17;;;;;;;3.33;2.38;;;;;;;;;;5124862;27;20027;-63
2023/10/27 04:30:43;;;;;;;7.03;2.60;;;;;;;;;;5123366;27;20430;-63
2023/10/27 04:33:10;;;;;;;5.25;2.70;;;;;;;;;;5117676;27;20801;-63
2023/10/27 04:35:36;;;;;;;3.17;2.33;;;;;;;;;;5122311;27;20495;-63
2023/10/27 04:38:03;;;;;;;6.10;2.30;;;;;;;;;;5120953;27;20030;-63
2023/10/27 04:40:31;;;;;;;3.63;2.33;;;;;;;;;;5118404;27;20046;-63
2023/10/27 04:42:58;;;;;;;7.15;3.40;;;;;;;;;;5120525;27;20484;-63
2023/10/27 04:45:25;;;;;;;6.15;3.45;;;;;;;;;;5120634;27;20031;-62
2023/10/27 04:47:51;;;;;;;4.28;3.20;;;;;;;;;;5120838;27;20062;-64
2023/10/27 04:50:17;;;;;;;8.98;2.92;;;;;;;;;;5122486;27;20035;-62
2023/10/27 04:52:45;;;;;;;5.90;3.10;;;;;;;;;;5123122;27;20060;-62
2023/10/27 04:55:12;;;;;;;2.88;2.38;;;;;;;;;;5125657;27;20054;-63
2023/10/27 04:57:38;;;;;;;2.78;2.40;;;;;;;;;;5117817;27;20031;-62
2023/10/27 05:00:05;;;;;;;5.28;2.67;;;;;;;;;;5120215;27;20338;-62
2023/10/27 05:02:31;;;;;;;7.80;2.65;;;;;;;;;;5115964;27;20026;-62
2023/10/27 05:04:57;;;;;;;4.53;2.45;;;;;;;;;;5119651;27;20023;-62
2023/10/27 05:07:24;;;;;;;5.60;2.85;;;;;;;;;;5116337;27;20019;-62
2023/10/27 05:09:51;;;;;;;6.65;3.42;;;;;;;;;;5120819;27;20337;-62
2023/10/27 05:12:17;;;;;;;7.05;2.85;;;;;;;;;;5118878;27;20027;-63
2023/10/27 05:14:43;;;;;;;4.07;2.67;;;;;;;;;;5123007;27;20551;-62
2023/10/27 05:17:10;;;;;;;4.15;2.72;;;;;;;;;;5112082;27;20028;-63
2023/10/27 05:19:36;;;;;;;6.43;3.00;;;;;;;;;;5111576;27;20027;-63
2023/10/27 05:22:04;;;;;;;3.85;2.50;;;;;;;;;;5119574;27;20545;-62
2023/10/27 05:24:31;;;;;;;4.18;2.72;;;;;;;;;;5119953;27;20074;-63
2023/10/27 05:26:57;;;;;;;6.25;2.97;;;;;;;;;;5123611;27;20141;-63
2023/10/27 05:29:23;;;;;;;3.10;2.47;;;;;;;;;;5116956;28;20039;-64
2023/10/27 05:31:49;;;;;;;4.22;3.30;;;;;;;;;;5122788;28;20102;-62
2023/10/27 05:34:15;;;;;;;5.13;3.47;;;;;;;;;;5118285;28;20062;-63
2023/10/27 05:36:42;;;;;;;5.22;3.45;;;;;;;;;;5118153;28;20030;-62
2023/10/27 05:39:08;;;;;;;6.38;3.15;;;;;;;;;;5120211;28;20434;-63
2023/10/27 05:41:34;;;;;;;6.38;4.32;;;;;;;;;;5119267;28;20106;-63
2023/10/27 05:44:00;;;;;;;8.93;3.33;;;;;;;;;;5118051;28;20051;-63
2023/10/27 05:46:28;;;;;;;5.80;3.70;;;;;;;;;;5121671;28;20520;-64
2023/10/27 05:49:00;;;;;;;5.72;3.58;;;;;;;;;;5117256;28;20031;-63
2023/10/27 05:51:26;;;;;;;6.10;3.10;;;;;;;;;;5120229;28;20046;-62
2023/10/27 05:53:52;;;;;;;4.43;3.08;;;;;;;;;;5123610;27;20027;-64
2023/10/27 05:56:18;;;;;;;4.35;3.40;;;;;;;;;;5125071;27;20142;-63
2023/10/27 05:58:46;;;;;;;4.28;3.05;;;;;;;;;;5128655;27;20023;-62
2023/10/27 06:01:12;;;;;;;4.63;2.78;;;;;;;;;;5120386;27;20675;-63
2023/10/27 06:03:38;;;;;;;6.72;3.40;;;;;;;;;;5121765;27;20027;-66
2023/10/27 06:06:04;;;;;;;5.95;3.05;;;;;;;;;;5120244;27;20038;-62
2023/10/27 06:08:30;;;;;;;5.25;3.30;;;;;;;;;;5126470;27;20058;-63
2023/10/27 06:10:57;;;;;;;7.65;3.47;;;;;;;;;;5120240;27;20042;-62
2023/10/27 06:13:23;;;;;;;3.15;2.85;;;;;;;;;;5120204;27;20076;-62
2023/10/27 06:15:49;;;;;;;5.68;3.53;;;;;;;;;;5119683;27;20038;-62
2023/10/27 06:18:15;;;;;;;5.60;3.10;;;;;;;;;;5119842;27;20023;-63
2023/10/27 06:20:41;;;;;;;4.85;3.15;;;;;;;;;;5117475;27;20496;-65
2023/10/27 06:23:07;;;;;;;4.80;3.33;;;;;;;;;;5118744;27;20420;-63
2023/10/27 06:25:33;;;;;;;7.28;3.83;;;;;;;;;;5121684;27;20060;-64
2023/10/27 06:28:00;;;;;;;4.68;3.13;;;;;;;;;;5119735;27;20065;-62
2023/10/27 06:30:26;;;;;;;6.18;3.38;;;;;;;;;;5118864;27;20317;-62
2023/10/27 06:32:52;;;;;;;3.95;2.95;;;;;;;;;;5112358;27;20142;-65
2023/10/27 06:35:18;;;;;;;9.20;2.90;;;;;;;;;;5118647;27;20019;-63
2023/10/27 06:37:44;;;;;;;7.05;3.58;;;;;;;;;;5117858;27;20023;-63
2023/10/27 06:40:11;;;;;;;6.00;2.80;;;;;;;;;;5117273;27;20027;-64
2023/10/27 06:42:37;;;;;;;4.68;3.08;;;;;;;;;;5116783;27;20380;-63
2023/10/27 06:45:04;;;;;;;4.22;3.00;;;;;;;;;;5119499;27;20032;-63
2023/10/27 06:47:30;;;;;;;7.18;3.22;;;;;;;;;;5122284;27;20499;-63
2023/10/27 06:49:56;;;;;;;6.00;3.10;;;;;;;;;;5124147;27;20108;-62
2023/10/27 06:52:22;;;;;;;6.45;3.00;;;;;;;;;;5114955;27;20493;-63
2023/10/27 06:54:49;;;;;;;5.28;2.80;;;;;;;;;;5126158;27;20083;-62
2023/10/27 06:57:15;;;;;;;7.18;3.03;;;;;;;;;;5127526;27;20433;-63
2023/10/27 06:59:41;;;;;;;8.10;3.45;;;;;;;;;;5122066;27;20027;-63
2023/10/27 07:02:07;;;;;;;4.03;2.88;;;;;;;;;;5117778;27;20368;-63
2023/10/27 07:04:33;;;;;;;5.40;3.17;;;;;;;;;;5125598;27;20031;-62
2023/10/27 07:06:59;;;;;;;7.00;3.10;;;;;;;;;;5117357;27;20391;-62
2023/10/27 07:09:26;;;;;;;7.97;3.13;;;;;;;;;;5125139;27;20019;-62
2023/10/27 07:11:52;;;;;;;4.60;3.13;;;;;;;;;;5111177;27;20498;-63
2023/10/27 07:14:18;;;;;;;6.57;2.95;;;;;;;;;;5122024;27;20098;-63
2023/10/27 07:16:44;;;;;;;3.65;3.35;;;;;;;;;;5118044;27;20023;-62
2023/10/27 07:19:11;;;;;;;4.10;3.10;;;;;;;;;;5114345;27;20022;-63
2023/10/27 07:21:38;;;;;;;8.07;3.33;;;;;;;;;;5118826;27;20023;-63
2023/10/27 07:24:04;;;;;;;8.38;4.18;;;;;;;;;;5121029;27;20085;-63
2023/10/27 07:26:31;;;;;;;5.05;4.20;;;;;;;;;;5117190;27;20276;-63
2023/10/27 07:28:57;;;;;;;11.20;5.28;;;;;;;;;;5121535;27;20099;-63
2023/10/27 07:31:23;;;;;;;8.68;4.43;;;;;;;;;;5116267;27;20030;-64
2023/10/27 07:33:49;;;;;;;7.28;4.97;;;;;;;;;;5119157;27;20035;-67
2023/10/27 07:36:16;;;;;;;7.43;4.95;;;;;;;;;;5119213;27;20087;-62
2023/10/27 07:38:43;;;;;;;10.75;5.68;;;;;;;;;;5117211;27;20796;-63
2023/10/27 07:41:12;;;;;;;9.10;5.93;;;;;;;;;;5119066;27;20143;-63
2023/10/27 07:43:39;;;;;;;14.50;7.65;;;;;;;;;;5118951;27;20083;-63
2023/10/27 07:46:05;;;;;;;9.18;6.82;;;;;;;;;;5113205;27;20362;-63
2023/10/27 07:48:32;;;;;;;13.30;7.18;;;;;;;;;;5112611;27;20696;-62
2023/10/27 07:50:58;;;;;;;14.65;6.53;;;;;;;;;;5112197;27;20039;-67
2023/10/27 07:53:26;;;;;;;9.77;7.78;;;;;;;;;;5113855;27;20601;-62
2023/10/27 07:55:52;;;;;;;11.35;6.82;;;;;;;;;;5118829;27;20449;-62
2023/10/27 07:58:18;;;;;;;13.88;7.32;;;;;;;;;;5118077;27;20026;-63
2023/10/27 08:00:44;;;;;;;11.93;7.55;;;;;;;;;;5119273;27;20399;-63
2023/10/27 08:03:11;;;;;;;12.70;6.57;;;;;;;;;;5118452;27;20063;-63
2023/10/27 08:05:37;;;;;;;12.25;6.53;;;;;;;;;;5113669;27;20030;-62
2023/10/27 08:08:03;;;;;;;11.60;5.60;;;;;;;;;;5110862;27;20031;-62
2023/10/27 08:10:30;;;;;;;13.95;5.50;;;;;;;;;;5117306;27;20035;-64
2023/10/27 08:12:56;;;;;;;11.18;5.45;;;;;;;;;;5115420;27;20027;-63
2023/10/27 08:15:23;;;;;;;8.35;5.32;;;;;;;;;;5114469;27;20023;-63
2023/10/27 08:17:49;;;;;;;8.82;5.57;;;;;;;;;;5122805;27;20532;-63
2023/10/27 08:20:16;;;;;;;11.02;4.80;;;;;;;;;;5120623;27;20114;-63
2023/10/27 08:22:43;;;;;;;14.88;5.40;;;;;;;;;;5114919;27;20051;-65
2023/10/27 08:25:09;;;;;;;5.70;4.25;;;;;;;;;;5120505;27;20023;-64
2023/10/27 08:27:38;;;;;;;8.30;4.80;;;;;;;;;;5119120;27;20758;-64
2023/10/27 08:30:04;;;;;;;9.10;4.10;;;;;;;;;;5123171;27;20027;-65
2023/10/27 08:32:31;;;;;;;6.47;3.88;;;;;;;;;;5100362;27;20052;-67
2023/10/27 08:34:57;;;;;;;7.95;4.32;;;;;;;;;;5116618;27;20034;-64
2023/10/27 08:37:23;;;;;;;5.25;3.58;;;;;;;;;;5105679;27;20049;-64
2023/10/27 08:39:49;;;;;;;7.65;4.57;;;;;;;;;;5111208;27;20031;-64
2023/10/27 08:42:15;;;;;;;8.00;4.68;;;;;;;;;;5088850;27;20050;-64
2023/10/27 08:44:42;;;;;;;10.75;4.88;;;;;;;;;;5106109;27;20084;-64
2023/10/27 08:47:08;;;;;;;9.02;4.72;;;;;;;;;;5109403;27;20547;-64
2023/10/27 08:49:34;;;;;;;12.32;4.50;;;;;;;;;;5112248;27;20035;-63
2023/10/27 08:52:02;;;;;;;8.95;4.65;;;;;;;;;;5104107;27;20031;-64
2023/10/27 08:54:30;;;;;;;9.90;4.65;;;;;;;;;;5106498;27;20487;-64
2023/10/27 08:56:56;;;;;;;12.05;4.88;;;;;;;;;;5087190;27;20069;-65
2023/10/27 08:59:23;;;;;;;7.72;3.85;;;;;;;;;;5100849;27;20046;-64
2023/10/27 09:01:54;;;;;;;8.40;3.50;;;;;;;;;;5100500;27;20102;-64
2023/10/27 09:04:23;;;;;;;7.68;3.58;;;;;;;;;;5094061;27;20027;-63
2023/10/27 09:06:49;;;;;;;13.07;3.53;;;;;;;;;;5081969;27;20175;-64
2023/10/27 09:09:16;;;;;;;13.75;3.95;;;;;;;;;;5112409;27;20510;-64
2023/10/27 09:11:47;;;;;;;8.05;3.80;;;;;;;;;;5106767;27;20104;-64
2023/10/27 09:14:20;;;;;;;12.18;3.92;;;;;;;;;;5113019;27;20081;-64
2023/10/27 09:16:46;;;;;;;8.23;3.08;;;;;;;;;;5113240;27;20033;-64
2023/10/27 09:19:24;;;;;;;14.68;3.25;;;;;;;;;;5107295;27;20031;-64
2023/10/27 09:21:52;;;;;;;6.45;3.25;;;;;;;;;;5114642;27;20027;-64
2023/10/27 09:24:36;;;;;;;5.50;2.88;;;;;;;;;;5111116;27;20034;-63
2023/10/27 09:27:02;;;;;;;4.47;3.22;;;;;;;;;;5107856;27;20551;-63
2023/10/27 09:29:31;;;;;;;6.93;3.90;;;;;;;;;;5113134;27;20073;-63
2023/10/27 09:31:58;;;;;;;8.30;3.63;;;;;;;;;;5109043;28;20391;-64
2023/10/27 09:34:24;;;;;;;5.78;3.20;;;;;;;;;;5108479;28;20506;-64
2023/10/27 09:36:52;;;;;;;5.82;3.10;;;;;;;;;;5115483;28;20023;-64
2023/10/27 09:39:22;;;;;;;8.20;3.33;;;;;;;;;;5117782;27;20174;-64
2023/10/27 09:42:02;;;;;;;5.80;3.88;;;;;;;;;;5112421;27;20062;-64
2023/10/27 09:44:35;;;;;;;6.07;3.47;;;;;;;;;;5116051;28;20106;-64
2023/10/27 09:47:03;;;;;;;11.38;4.13;;;;;;;;;;5114614;28;20087;-64
2023/10/27 09:49:33;;;;;;;5.95;2.60;;;;;;;;;;5106494;28;20031;-64
2023/10/27 09:52:00;;;;;;;5.47;3.35;;;;;;;;;;5116341;28;20408;-72
2023/10/27 09:54:30;;;;;;;7.72;3.70;;;;;;;;;;5122082;28;20080;-72
2023/10/27 09:56:57;;;;;;;7.70;3.88;;;;;;;;;;5116086;28;20027;-72
2023/10/27 09:59:23;;;;;;;9.25;3.28;;;;;;;;;;5118894;28;20028;-72
2023/10/27 10:01:49;;;;;;;6.28;3.20;;;;;;;;;;5114591;28;20039;-72
2023/10/27 10:04:35;;;;;;;13.95;3.95;;;;;;;;;;5114980;28;20032;-72
2023/10/27 10:07:05;;;;;;;9.15;3.28;;;;;;;;;;5118881;28;20508;-72
2023/10/27 10:09:41;;;;;;;7.00;3.25;;;;;;;;;;5110297;28;20035;-72
2023/10/27 10:12:08;;;;;;;5.50;2.45;;;;;;;;;;5122440;28;20114;-72
2023/10/27 10:14:38;;;;;;;10.90;4.15;;;;;;;;;;5108489;28;20020;-72
2023/10/27 10:17:04;;;;;;;7.32;3.65;;;;;;;;;;5108943;28;20111;-72
2023/10/27 10:19:49;;;;;;;10.70;2.55;;;;;;;;;;5112848;28;20420;-71
2023/10/27 10:22:34;;;;;;;8.55;2.63;;;;;;;;;;5113444;28;20038;-71
2023/10/27 10:25:19;;;;;;;3.37;2.50;;;;;;;;;;5111166;28;20131;-72
2023/10/27 10:28:03;;;;;;;3.28;2.10;;;;;;;;;;5107822;28;20427;-72
2023/10/27 10:30:30;;;;;;;8.50;2.30;;;;;;;;;;5113553;28;20035;-70
2023/10/27 10:33:15;;;;;;;3.88;2.17;;;;;;;;;;5110920;28;20376;-71
2023/10/27 10:35:42;;;;;;;5.73;2.63;;;;;;;;;;5119985;28;20034;-71
2023/10/27 10:38:23;;;;;;;3.88;2.63;;;;;;;;;;5118406;27;20463;-73
2023/10/27 10:40:53;;;;;;;5.85;2.15;;;;;;;;;;5123220;27;20035;-71
2023/10/27 10:43:24;;;;;;;5.28;2.20;;;;;;;;;;5121138;27;20254;-71
2023/10/27 10:45:50;;;;;;;5.53;2.33;;;;;;;;;;5124903;27;20113;-71
2023/10/27 10:48:18;;;;;;;4.82;2.75;;;;;;;;;;5121177;27;20126;-71
2023/10/27 10:50:44;;;;;;;5.63;2.40;;;;;;;;;;5107950;27;20495;-70
2023/10/27 10:53:17;;;;;;;5.07;2.60;;;;;;;;;;5114952;27;20023;-72
2023/10/27 10:55:45;;;;;;;9.10;2.58;;;;;;;;;;5114684;27;20863;-70
2023/10/27 10:58:11;;;;;;;5.25;2.53;;;;;;;;;;5125926;27;20016;-69
2023/10/27 11:00:37;;;;;;;4.55;2.25;;;;;;;;;;5122142;27;20522;-68
2023/10/27 11:03:13;;;;;;;3.83;1.90;;;;;;;;;;5117886;27;20031;-65
2023/10/27 11:05:41;;;;;;;7.55;3.33;;;;;;;;;;5114085;27;20351;-66
2023/10/27 11:08:07;;;;;;;7.47;2.10;;;;;;;;;;5112523;27;20027;-66
2023/10/27 11:10:34;;;;;;;5.25;2.20;;;;;;;;;;5111235;27;20031;-65
2023/10/27 11:13:04;;;;;;;3.13;2.10;;;;;;;;;;5117794;27;20168;-66
2023/10/27 11:15:50;;;;;;;3.67;1.90;;;;;;;;;;5113976;27;20019;-65
2023/10/27 11:18:17;;;;;;;4.63;2.60;;;;;;;;;;5110731;27;20027;-66
2023/10/27 11:20:44;;;;;;;6.13;2.47;;;;;;;;;;5118404;27;20027;-66
2023/10/27 11:23:14;;;;;;;6.78;1.88;;;;;;;;;;5111524;27;21150;-65
2023/10/27 11:25:40;;;;;;;6.30;2.88;;;;;;;;;;5117002;27;20369;-66
2023/10/27 11:28:18;;;;;;;4.13;1.80;;;;;;;;;;5115528;27;20066;-65
2023/10/27 11:30:57;;;;;;;9.27;2.20;;;;;;;;;;5115318;27;20136;-66
2023/10/27 11:33:23;;;;;;;5.22;2.05;;;;;;;;;;5116492;27;20027;-66
2023/10/27 11:35:49;;;;;;;2.47;1.90;;;;;;;;;;5113739;27;20115;-66
2023/10/27 11:38:15;;;;;;;4.00;2.00;;;;;;;;;;5114912;27;20023;-66
2023/10/27 11:40:41;;;;;;;4.93;1.75;;;;;;;;;;5114118;27;20039;-66
2023/10/27 11:43:08;;;;;;;5.40;2.10;;;;;;;;;;5115005;27;20093;-66
2023/10/27 11:45:37;;;;;;;2.50;1.88;;;;;;;;;;5114137;27;20094;-66
2023/10/27 11:48:03;;;;;;;2.92;1.80;;;;;;;;;;5113643;27;20360;-65
2023/10/27 11:50:29;;;;;;;4.65;1.80;;;;;;;;;;5118882;27;20385;-66
2023/10/27 11:52:55;;;;;;;5.22;1.80;;;;;;;;;;5119591;27;20031;-67
2023/10/27 11:55:22;;;;;;;3.78;1.80;;;;;;;;;;5116572;27;20031;-66
2023/10/27 11:57:48;;;;;;;4.50;1.83;;;;;;;;;;5114071;27;20023;-65
2023/10/27 12:00:15;;;;;;;5.28;3.92;;;;;;;;;;5116457;27;20169;-66
2023/10/27 12:02:41;;;;;;;4.15;2.10;;;;;;;;;;5114392;27;20011;-66
2023/10/27 12:05:07;;;;;;;5.20;3.33;;;;;;;;;;5119495;27;20502;-65
2023/10/27 12:07:33;;;;;;;6.28;2.33;;;;;;;;;;5120221;27;20030;-65
2023/10/27 12:10:00;;;;;;;4.28;1.73;;;;;;;;;;5113201;27;20728;-65
2023/10/27 12:12:26;;;;;;;4.20;2.17;;;;;;;;;;5111412;27;20035;-65
2023/10/27 12:14:52;;;;;;;3.45;2.20;;;;;;;;;;5118286;27;20418;-65
2023/10/27 12:17:20;;;;;;;2.97;1.88;;;;;;;;;;5124224;27;20020;-65
2023/10/27 12:19:46;;;;;;;5.40;2.13;;;;;;;;;;5115869;27;20027;-65
2023/10/27 12:22:12;;;;;;;4.95;1.98;;;;;;;;;;5117862;27;20103;-66
2023/10/27 12:24:38;;;;;;;3.85;1.63;;;;;;;;;;5111048;27;20027;-65
2023/10/27 12:27:04;;;;;;;4.30;2.63;;;;;;;;;;5115466;27;20483;-65
2023/10/27 12:29:31;;;;;;;4.50;2.22;;;;;;;;;;5117798;27;20474;-65
2023/10/27 12:31:57;;;;;;;2.25;1.58;;;;;;;;;;5113539;27;20079;-65
2023/10/27 12:34:23;;;;;;;3.55;1.77;;;;;;;;;;5116807;27;20421;-64
2023/10/27 12:36:49;;;;;;;4.50;2.00;;;;;;;;;;5116879;27;20055;-65
2023/10/27 12:39:15;;;;;;;5.35;1.80;;;;;;;;;;5116376;27;20563;-64
2023/10/27 12:41:42;;;;;;;4.80;2.08;;;;;;;;;;5117104;27;20059;-65
2023/10/27 12:44:08;;;;;;;4.03;2.30;;;;;;;;;;5112264;27;20053;-65
2023/10/27 12:46:34;;;;;;;4.70;1.85;;;;;;;;;;5116497;27;20502;-65
2023/10/27 12:49:01;;;;;;;6.50;2.40;;;;;;;;;;5116025;27;20122;-64
2023/10/27 12:51:27;;;;;;;3.42;1.90;;;;;;;;;;5114331;27;20096;-65
2023/10/27 12:53:54;;;;;;;5.65;1.88;;;;;;;;;;5119809;27;20487;-65
2023/10/27 12:56:20;;;;;;;4.82;2.00;;;;;;;;;;5116412;27;20036;-65
2023/10/27 12:58:49;;;;;;;6.80;2.38;;;;;;;;;;5114833;27;20027;-65
2023/10/27 13:01:16;;;;;;;4.68;2.05;;;;;;;;;;5114248;27;20539;-65
2023/10/27 13:03:42;;;;;;;3.70;1.90;;;;;;;;;;5114717;27;20027;-65
2023/10/27 13:06:13;;;;;;;4.78;1.77;;;;;;;;;;5113299;27;20031;-65
2023/10/27 13:08:39;;;;;;;6.47;2.65;;;;;;;;;;5115043;27;20031;-66
2023/10/27 13:11:06;;;;;;;4.63;2.53;;;;;;;;;;5112418;27;20053;-65
2023/10/27 13:13:34;;;;;;;5.25;2.25;;;;;;;;;;5111897;27;20025;-65
2023/10/27 13:16:00;;;;;;;4.43;2.28;;;;;;;;;;5113307;27;20491;-64
2023/10/27 13:18:27;;;;;;;5.53;2.17;;;;;;;;;;5117186;27;20091;-64
2023/10/27 13:20:53;;;;;;;3.42;1.95;;;;;;;;;;5110463;27;20035;-65
2023/10/27 13:23:19;;;;;;;7.10;2.42;;;;;;;;;;5111667;27;20023;-64
2023/10/27 13:25:46;;;;;;;3.88;1.98;;;;;;;;;;5110963;28;20063;-64
2023/10/27 13:28:14;;;;;;;4.53;2.00;;;;;;;;;;5111816;27;20031;-64
2023/10/27 13:30:45;;;;;;;6.72;1.95;;;;;;;;;;5108756;27;20063;-64
2023/10/27 13:33:11;;;;;;;5.65;2.13;;;;;;;;;;5114128;27;20088;-64
2023/10/27 13:35:37;;;;;;;3.55;1.95;;;;;;;;;;5110507;28;20175;-65
2023/10/27 13:38:06;;;;;;;6.30;2.50;;;;;;;;;;5108411;27;20030;-65
2023/10/27 13:40:36;;;;;;;4.82;2.75;;;;;;;;;;5110651;28;20055;-65
2023/10/27 13:43:02;;;;;;;6.75;3.40;;;;;;;;;;5113058;28;20038;-64
2023/10/27 13:45:28;;;;;;;7.63;3.33;;;;;;;;;;5114506;28;20058;-64
2023/10/27 13:47:55;;;;;;;9.15;3.20;;;;;;;;;;5121506;28;20122;-64
2023/10/27 13:50:21;;;;;;;3.97;2.40;;;;;;;;;;5120036;28;20035;-64
2023/10/27 13:52:51;;;;;;;7.45;2.80;;;;;;;;;;5113122;28;20023;-64
2023/10/27 13:55:17;;;;;;;3.35;2.42;;;;;;;;;;5110199;28;20046;-64
2023/10/27 13:57:43;;;;;;;4.20;2.28;;;;;;;;;;5116760;28;20043;-63
2023/10/27 14:00:11;;;;;;;5.45;2.10;;;;;;;;;;5120099;28;20434;-64
2023/10/27 14:02:37;;;;;;;6.25;2.40;;;;;;;;;;5122077;28;20108;-66
2023/10/27 14:05:03;;;;;;;2.83;2.28;;;;;;;;;;5107558;28;20019;-67
2023/10/27 14:07:29;;;;;;;5.53;2.03;;;;;;;;;;5097842;27;20040;-66
2023/10/27 14:09:56;;;;;;;6.85;2.20;;;;;;;;;;5098166;28;20160;-66
2023/10/27 14:12:25;;;;;;;8.60;2.20;;;;;;;;;;5104057;27;20027;-66
2023/10/27 14:14:51;;;;;;;5.82;2.33;;;;;;;;;;5117930;27;20839;-66
2023/10/27 14:17:19;;;;;;;7.88;2.97;;;;;;;;;;5124782;27;20439;-66
2023/10/27 14:19:49;;;;;;;5.60;2.33;;;;;;;;;;5099269;27;20036;-67
2023/10/27 14:22:15;;;;;;;4.13;2.33;;;;;;;;;;5125113;27;20080;-66
2023/10/27 14:24:42;;;;;;;7.65;2.13;;;;;;;;;;5117531;27;20499;-66
2023/10/27 14:27:08;;;;;;;5.43;2.80;;;;;;;;;;5114866;27;20089;-66
2023/10/27 14:29:34;;;;;;;5.88;2.42;;;;;;;;;;5131827;27;20030;-66
2023/10/27 14:32:01;;;;;;;8.27;3.63;;;;;;;;;;5113481;27;20520;-66
2023/10/27 14:34:27;;;;;;;12.95;3.30;;;;;;;;;;5117357;27;20034;-66
2023/10/27 14:36:53;;;;;;;5.95;3.75;;;;;;;;;;5116799;27;20100;-66
2023/10/27 14:39:19;;;;;;;5.38;3.40;;;;;;;;;;5111459;27;20046;-66
2023/10/27 14:41:45;;;;;;;5.90;3.83;;;;;;;;;;5115702;27;20039;-66
2023/10/27 14:44:12;;;;;;;7.38;4.10;;;;;;;;;;5116582;27;20031;-68